sensor_id;sensor_type;location;lat;lon;timestamp;temperature;humidity
36498;DHT22;22513;51.222;6.480;2022-11-20T00:00:46;2.90;99.90
36498;DHT22;22513;51.222;6.480;2022-11-20T00:03:12;3.00;99.90
36498;DHT22;22513;51.222;6.480;2022-11-20T00:05:38;2.90;99.90
36498;DHT22;22513;51.222;6.480;2022-11-20T00:08:04;2.90;99.90
36498;DHT22;22513;51.222;6.480;2022-11-20T00:10:30;2.90;99.90
36498;DHT22;22513;51.222;6.480;2022-11-20T00:12:57;2.90;99.90
36498;DHT22;22513;51.222;6.480;2022-11-20T00:15:22;2.90;99.90
36498;DHT22;22513;51.222;6.480;2022-11-20T00:17:48;2.90;99.90
36498;DHT22;22513;51.222;6.480;2022-11-20T00:20:14;2.90;99.90
36498;DHT22;22513;51.222;6.480;2022-11-20T00:22:40;2.90;99.90
36498;DHT22;22513;51.222;6.480;2022-11-20T00:25:05;2.90;99.90
36498;DHT22;22513;51.222;6.480;2022-11-20T00:27:31;2.90;99.90
36498;DHT22;22513;51.222;6.480;2022-11-20T00:29:56;2.90;99.90
36498;DHT22;22513;51.222;6.480;2022-11-20T00:32:22;2.90;99.90
36498;DHT22;22513;51.222;6.480;2022-11-20T00:34:48;2.90;99.90
36498;DHT22;22513;51.222;6.480;2022-11-20T00:37:13;3.00;99.90
36498;DHT22;22513;51.222;6.480;2022-11-20T00:39:39;2.90;99.90
36498;DHT22;22513;51.222;6.480;2022-11-20T00:42:04;2.90;99.90
36498;DHT22;22513;51.222;6.480;2022-11-20T00:44:30;3.00;99.90
36498;DHT22;22513;51.222;6.480;2022-11-20T00:46:55;3.00;99.90
36498;DHT22;22513;51.222;6.480;2022-11-20T00:49:21;3.00;99.90
36498;DHT22;22513;51.222;6.480;2022-11-20T00:51:46;3.10;99.90
36498;DHT22;22513;51.222;6.480;2022-11-20T00:54:12;3.10;99.90
36498;DHT22;22513;51.222;6.480;2022-11-20T00:56:38;3.10;99.90
36498;DHT22;22513;51.222;6.480;2022-11-20T00:59:04;3.10;99.90
36498;DHT22;22513;51.222;6.480;2022-11-20T01:01:30;3.10;99.90
36498;DHT22;22513;51.222;6.480;2022-11-20T01:03:57;3.10;99.90
36498;DHT22;22513;51.222;6.480;2022-11-20T01:06:25;3.10;99.90
36498;DHT22;22513;51.222;6.480;2022-11-20T01:08:54;3.20;99.90
36498;DHT22;22513;51.222;6.480;2022-11-20T01:11:24;3.20;99.90
36498;DHT22;22513;51.222;6.480;2022-11-20T01:13:51;3.20;99.90
36498;DHT22;22513;51.222;6.480;2022-11-20T01:16:30;3.30;99.90
36498;DHT22;22513;51.222;6.480;2022-11-20T01:18:58;3.20;99.90
36498;DHT22;22513;51.222;6.480;2022-11-20T01:21:36;3.20;99.90
36498;DHT22;22513;51.222;6.480;2022-11-20T01:24:03;3.20;99.90
36498;DHT22;22513;51.222;6.480;2022-11-20T01:26:32;3.20;99.90
36498;DHT22;22513;51.222;6.480;2022-11-20T01:28:59;3.20;99.90
36498;DHT22;22513;51.222;6.480;2022-11-20T01:31:32;3.20;99.90
36498;DHT22;22513;51.222;6.480;2022-11-20T01:34:00;3.20;99.90
36498;DHT22;22513;51.222;6.480;2022-11-20T01:36:28;3.20;99.90
36498;DHT22;22513;51.222;6.480;2022-11-20T01:38:56;2.90;99.90
36498;DHT22;22513;51.222;6.480;2022-11-20T01:41:22;2.70;99.90
36498;DHT22;22513;51.222;6.480;2022-11-20T01:44:09;2.50;99.90
36498;DHT22;22513;51.222;6.480;2022-11-20T01:46:37;2.30;99.90
36498;DHT22;22513;51.222;6.480;2022-11-20T01:49:40;2.10;99.90
36498;DHT22;22513;51.222;6.480;2022-11-20T01:52:13;1.90;99.90
36498;DHT22;22513;51.222;6.480;2022-11-20T01:54:49;1.70;99.90
36498;DHT22;22513;51.222;6.480;2022-11-20T01:57:17;1.60;99.90
36498;DHT22;22513;51.222;6.480;2022-11-20T01:59:49;1.50;99.90
36498;DHT22;22513;51.222;6.480;2022-11-20T02:02:18;1.30;99.90
36498;DHT22;22513;51.222;6.480;2022-11-20T02:04:44;1.10;99.90
36498;DHT22;22513;51.222;6.480;2022-11-20T02:07:10;1.00;99.90
36498;DHT22;22513;51.222;6.480;2022-11-20T02:09:36;0.90;99.90
36498;DHT22;22513;51.222;6.480;2022-11-20T02:12:03;0.80;99.90
36498;DHT22;22513;51.222;6.480;2022-11-20T02:14:29;0.70;99.90
36498;DHT22;22513;51.222;6.480;2022-11-20T02:16:55;0.60;99.90
36498;DHT22;22513;51.222;6.480;2022-11-20T02:19:30;0.50;99.90
36498;DHT22;22513;51.222;6.480;2022-11-20T02:24:25;0.40;99.90
36498;DHT22;22513;51.222;6.480;2022-11-20T02:27:07;0.30;99.90
36498;DHT22;22513;51.222;6.480;2022-11-20T02:29:54;0.20;99.90
36498;DHT22;22513;51.222;6.480;2022-11-20T02:32:25;0.10;99.90
36498;DHT22;22513;51.222;6.480;2022-11-20T02:34:51;0.00;99.90
36498;DHT22;22513;51.222;6.480;2022-11-20T02:37:18;0.00;99.90
36498;DHT22;22513;51.222;6.480;2022-11-20T02:39:46;-0.10;99.90
36498;DHT22;22513;51.222;6.480;2022-11-20T02:42:12;-0.20;99.90
36498;DHT22;22513;51.222;6.480;2022-11-20T02:44:38;-0.30;99.90
36498;DHT22;22513;51.222;6.480;2022-11-20T02:47:04;-0.30;99.90
36498;DHT22;22513;51.222;6.480;2022-11-20T02:49:30;-0.30;99.90
36498;DHT22;22513;51.222;6.480;2022-11-20T02:51:55;-0.30;99.90
36498;DHT22;22513;51.222;6.480;2022-11-20T02:54:21;-0.30;99.90
36498;DHT22;22513;51.222;6.480;2022-11-20T02:56:46;-0.40;99.90
36498;DHT22;22513;51.222;6.480;2022-11-20T02:59:12;-0.40;99.90
36498;DHT22;22513;51.222;6.480;2022-11-20T03:01:37;-0.40;99.90
36498;DHT22;22513;51.222;6.480;2022-11-20T03:04:04;-0.50;99.90
36498;DHT22;22513;51.222;6.480;2022-11-20T03:06:29;-0.60;99.90
36498;DHT22;22513;51.222;6.480;2022-11-20T03:08:55;-0.70;99.90
36498;DHT22;22513;51.222;6.480;2022-11-20T03:11:20;-0.70;99.90
36498;DHT22;22513;51.222;6.480;2022-11-20T03:13:49;-0.80;99.90
36498;DHT22;22513;51.222;6.480;2022-11-20T03:16:21;-0.80;99.90
36498;DHT22;22513;51.222;6.480;2022-11-20T03:18:47;-0.80;99.90
36498;DHT22;22513;51.222;6.480;2022-11-20T03:21:14;-0.90;99.90
36498;DHT22;22513;51.222;6.480;2022-11-20T03:23:40;-1.00;99.90
36498;DHT22;22513;51.222;6.480;2022-11-20T03:26:18;-1.00;99.90
36498;DHT22;22513;51.222;6.480;2022-11-20T03:28:52;-1.00;99.90
36498;DHT22;22513;51.222;6.480;2022-11-20T03:31:21;-1.00;99.90
36498;DHT22;22513;51.222;6.480;2022-11-20T03:33:46;-0.90;99.90
36498;DHT22;22513;51.222;6.480;2022-11-20T03:36:14;-0.80;99.90
36498;DHT22;22513;51.222;6.480;2022-11-20T03:38:40;-0.70;99.90
36498;DHT22;22513;51.222;6.480;2022-11-20T03:41:11;-0.70;99.90
36498;DHT22;22513;51.222;6.480;2022-11-20T03:43:38;-0.50;99.90
36498;DHT22;22513;51.222;6.480;2022-11-20T03:46:04;-0.40;99.90
36498;DHT22;22513;51.222;6.480;2022-11-20T03:48:30;-0.30;99.90
36498;DHT22;22513;51.222;6.480;2022-11-20T03:51:16;-0.20;99.90
36498;DHT22;22513;51.222;6.480;2022-11-20T03:53:43;-0.10;99.90
36498;DHT22;22513;51.222;6.480;2022-11-20T03:56:09;0.00;99.90
36498;DHT22;22513;51.222;6.480;2022-11-20T03:58:36;0.10;99.90
36498;DHT22;22513;51.222;6.480;2022-11-20T04:01:11;0.10;99.90
36498;DHT22;22513;51.222;6.480;2022-11-20T04:03:38;0.20;99.90
36498;DHT22;22513;51.222;6.480;2022-11-20T04:06:37;0.30;99.90
36498;DHT22;22513;51.222;6.480;2022-11-20T04:09:03;0.30;99.90
36498;DHT22;22513;51.222;6.480;2022-11-20T04:11:31;0.40;99.90
36498;DHT22;22513;51.222;6.480;2022-11-20T04:13:58;0.50;99.90
36498;DHT22;22513;51.222;6.480;2022-11-20T04:16:25;0.50;99.90
36498;DHT22;22513;51.222;6.480;2022-11-20T04:18:56;0.60;99.90
36498;DHT22;22513;51.222;6.480;2022-11-20T04:21:23;0.60;99.90
36498;DHT22;22513;51.222;6.480;2022-11-20T04:23:50;0.70;99.90
36498;DHT22;22513;51.222;6.480;2022-11-20T04:26:16;0.70;99.90
36498;DHT22;22513;51.222;6.480;2022-11-20T04:28:41;0.80;99.90
36498;DHT22;22513;51.222;6.480;2022-11-20T04:31:08;0.80;99.90
36498;DHT22;22513;51.222;6.480;2022-11-20T04:33:35;0.80;99.90
36498;DHT22;22513;51.222;6.480;2022-11-20T04:36:02;0.90;99.90
36498;DHT22;22513;51.222;6.480;2022-11-20T04:38:28;0.90;99.90
36498;DHT22;22513;51.222;6.480;2022-11-20T04:41:01;0.90;99.90
36498;DHT22;22513;51.222;6.480;2022-11-20T04:43:28;1.00;99.90
36498;DHT22;22513;51.222;6.480;2022-11-20T04:45:54;1.00;99.90
36498;DHT22;22513;51.222;6.480;2022-11-20T04:48:21;1.00;99.90
36498;DHT22;22513;51.222;6.480;2022-11-20T04:50:47;1.00;99.90
36498;DHT22;22513;51.222;6.480;2022-11-20T04:53:12;1.00;99.90
36498;DHT22;22513;51.222;6.480;2022-11-20T04:55:38;1.00;99.90
36498;DHT22;22513;51.222;6.480;2022-11-20T04:58:04;1.00;99.90
36498;DHT22;22513;51.222;6.480;2022-11-20T05:00:29;1.00;99.90
36498;DHT22;22513;51.222;6.480;2022-11-20T05:02:55;1.10;99.90
36498;DHT22;22513;51.222;6.480;2022-11-20T05:05:20;1.10;99.90
36498;DHT22;22513;51.222;6.480;2022-11-20T05:07:46;1.10;99.90
36498;DHT22;22513;51.222;6.480;2022-11-20T05:10:11;1.10;99.90
36498;DHT22;22513;51.222;6.480;2022-11-20T05:12:37;1.10;99.90
36498;DHT22;22513;51.222;6.480;2022-11-20T05:15:03;1.20;99.90
36498;DHT22;22513;51.222;6.480;2022-11-20T05:17:28;1.20;99.90
36498;DHT22;22513;51.222;6.480;2022-11-20T05:19:56;1.30;99.90
36498;DHT22;22513;51.222;6.480;2022-11-20T05:22:22;1.30;99.90
36498;DHT22;22513;51.222;6.480;2022-11-20T05:24:48;1.40;99.90
36498;DHT22;22513;51.222;6.480;2022-11-20T05:27:13;1.50;99.90
36498;DHT22;22513;51.222;6.480;2022-11-20T05:29:39;1.50;99.90
36498;DHT22;22513;51.222;6.480;2022-11-20T05:32:05;1.50;99.90
36498;DHT22;22513;51.222;6.480;2022-11-20T05:34:32;1.50;99.90
36498;DHT22;22513;51.222;6.480;2022-11-20T05:36:58;1.60;99.90
36498;DHT22;22513;51.222;6.480;2022-11-20T05:39:24;1.70;99.90
36498;DHT22;22513;51.222;6.480;2022-11-20T05:41:49;1.70;99.90
36498;DHT22;22513;51.222;6.480;2022-11-20T05:44:35;1.70;99.90
36498;DHT22;22513;51.222;6.480;2022-11-20T05:47:00;1.80;99.90
36498;DHT22;22513;51.222;6.480;2022-11-20T05:49:26;1.80;99.90
36498;DHT22;22513;51.222;6.480;2022-11-20T05:51:51;1.80;99.90
36498;DHT22;22513;51.222;6.480;2022-11-20T05:54:17;1.80;99.90
36498;DHT22;22513;51.222;6.480;2022-11-20T05:56:42;1.90;99.90
36498;DHT22;22513;51.222;6.480;2022-11-20T05:59:08;1.80;99.90
36498;DHT22;22513;51.222;6.480;2022-11-20T06:01:34;1.90;99.90
36498;DHT22;22513;51.222;6.480;2022-11-20T06:04:01;1.80;99.90
36498;DHT22;22513;51.222;6.480;2022-11-20T06:06:27;1.70;99.90
36498;DHT22;22513;51.222;6.480;2022-11-20T06:08:53;1.70;99.90
36498;DHT22;22513;51.222;6.480;2022-11-20T06:11:19;1.50;99.90
36498;DHT22;22513;51.222;6.480;2022-11-20T06:13:45;1.40;99.90
36498;DHT22;22513;51.222;6.480;2022-11-20T06:16:12;1.40;99.90
36498;DHT22;22513;51.222;6.480;2022-11-20T06:18:38;1.30;99.90
36498;DHT22;22513;51.222;6.480;2022-11-20T06:21:23;1.20;99.90
36498;DHT22;22513;51.222;6.480;2022-11-20T06:23:49;1.10;99.90
36498;DHT22;22513;51.222;6.480;2022-11-20T06:26:18;1.10;99.90
36498;DHT22;22513;51.222;6.480;2022-11-20T06:28:45;1.00;99.90
36498;DHT22;22513;51.222;6.480;2022-11-20T06:31:13;0.90;99.90
36498;DHT22;22513;51.222;6.480;2022-11-20T06:33:40;0.90;99.90
36498;DHT22;22513;51.222;6.480;2022-11-20T06:36:06;0.80;99.90
36498;DHT22;22513;51.222;6.480;2022-11-20T06:38:32;0.70;99.90
36498;DHT22;22513;51.222;6.480;2022-11-20T06:40:57;0.70;99.90
36498;DHT22;22513;51.222;6.480;2022-11-20T06:43:23;0.60;99.90
36498;DHT22;22513;51.222;6.480;2022-11-20T06:45:56;0.50;99.90
36498;DHT22;22513;51.222;6.480;2022-11-20T06:48:23;0.50;99.90
36498;DHT22;22513;51.222;6.480;2022-11-20T06:50:49;0.50;99.90
36498;DHT22;22513;51.222;6.480;2022-11-20T06:53:15;0.50;99.90
36498;DHT22;22513;51.222;6.480;2022-11-20T06:55:47;0.50;99.90
36498;DHT22;22513;51.222;6.480;2022-11-20T06:58:14;0.50;99.90
36498;DHT22;22513;51.222;6.480;2022-11-20T07:00:40;0.50;99.90
36498;DHT22;22513;51.222;6.480;2022-11-20T07:03:07;0.50;99.90
36498;DHT22;22513;51.222;6.480;2022-11-20T07:05:34;0.60;99.90
36498;DHT22;22513;51.222;6.480;2022-11-20T07:08:00;0.70;99.90
36498;DHT22;22513;51.222;6.480;2022-11-20T07:10:25;0.80;99.90
36498;DHT22;22513;51.222;6.480;2022-11-20T07:12:52;0.90;99.90
36498;DHT22;22513;51.222;6.480;2022-11-20T07:15:19;1.10;99.90
36498;DHT22;22513;51.222;6.480;2022-11-20T07:17:45;1.20;99.90
36498;DHT22;22513;51.222;6.480;2022-11-20T07:20:11;1.30;99.90
36498;DHT22;22513;51.222;6.480;2022-11-20T07:22:36;1.40;99.90
36498;DHT22;22513;51.222;6.480;2022-11-20T07:25:03;1.50;99.90
36498;DHT22;22513;51.222;6.480;2022-11-20T07:27:29;1.60;99.90
36498;DHT22;22513;51.222;6.480;2022-11-20T07:29:55;1.70;99.90
36498;DHT22;22513;51.222;6.480;2022-11-20T07:32:21;1.80;99.90
36498;DHT22;22513;51.222;6.480;2022-11-20T07:34:47;1.90;99.90
36498;DHT22;22513;51.222;6.480;2022-11-20T07:37:13;1.90;99.90
36498;DHT22;22513;51.222;6.480;2022-11-20T07:39:38;2.00;99.90
36498;DHT22;22513;51.222;6.480;2022-11-20T07:42:05;2.00;99.90
36498;DHT22;22513;51.222;6.480;2022-11-20T07:44:31;2.10;99.90
36498;DHT22;22513;51.222;6.480;2022-11-20T07:46:56;2.20;99.90
36498;DHT22;22513;51.222;6.480;2022-11-20T07:49:22;2.20;99.90
36498;DHT22;22513;51.222;6.480;2022-11-20T07:51:50;2.30;99.90
36498;DHT22;22513;51.222;6.480;2022-11-20T07:54:16;2.30;99.90
36498;DHT22;22513;51.222;6.480;2022-11-20T07:56:42;2.40;99.90
36498;DHT22;22513;51.222;6.480;2022-11-20T07:59:07;2.50;99.90
36498;DHT22;22513;51.222;6.480;2022-11-20T08:01:33;2.50;99.90
36498;DHT22;22513;51.222;6.480;2022-11-20T08:03:59;2.60;99.90
36498;DHT22;22513;51.222;6.480;2022-11-20T08:06:24;2.70;99.90
36498;DHT22;22513;51.222;6.480;2022-11-20T08:08:50;2.80;99.90
36498;DHT22;22513;51.222;6.480;2022-11-20T08:11:16;2.90;99.90
36498;DHT22;22513;51.222;6.480;2022-11-20T08:14:00;3.00;99.90
36498;DHT22;22513;51.222;6.480;2022-11-20T08:16:45;3.10;99.90
36498;DHT22;22513;51.222;6.480;2022-11-20T08:19:12;3.20;99.90
36498;DHT22;22513;51.222;6.480;2022-11-20T08:21:38;3.30;99.90
36498;DHT22;22513;51.222;6.480;2022-11-20T08:24:05;3.40;99.90
36498;DHT22;22513;51.222;6.480;2022-11-20T08:26:31;3.40;99.90
36498;DHT22;22513;51.222;6.480;2022-11-20T08:28:57;3.60;99.90
36498;DHT22;22513;51.222;6.480;2022-11-20T08:31:24;3.60;99.90
36498;DHT22;22513;51.222;6.480;2022-11-20T08:33:50;3.60;99.90
36498;DHT22;22513;51.222;6.480;2022-11-20T08:36:16;3.70;99.90
36498;DHT22;22513;51.222;6.480;2022-11-20T08:38:46;3.80;99.90
36498;DHT22;22513;51.222;6.480;2022-11-20T08:41:11;3.90;99.90
36498;DHT22;22513;51.222;6.480;2022-11-20T08:43:52;4.10;99.90
36498;DHT22;22513;51.222;6.480;2022-11-20T08:46:18;4.20;99.90
36498;DHT22;22513;51.222;6.480;2022-11-20T08:48:44;4.30;99.90
36498;DHT22;22513;51.222;6.480;2022-11-20T08:51:10;4.40;99.90
36498;DHT22;22513;51.222;6.480;2022-11-20T08:53:35;4.40;99.90
36498;DHT22;22513;51.222;6.480;2022-11-20T08:56:01;4.50;99.90
36498;DHT22;22513;51.222;6.480;2022-11-20T08:58:27;4.50;99.90
36498;DHT22;22513;51.222;6.480;2022-11-20T09:00:52;4.60;99.90
36498;DHT22;22513;51.222;6.480;2022-11-20T09:03:18;4.70;99.90
36498;DHT22;22513;51.222;6.480;2022-11-20T09:05:44;4.80;99.90
36498;DHT22;22513;51.222;6.480;2022-11-20T09:08:09;4.90;99.90
36498;DHT22;22513;51.222;6.480;2022-11-20T09:10:35;5.10;99.90
36498;DHT22;22513;51.222;6.480;2022-11-20T09:13:02;5.20;99.90
36498;DHT22;22513;51.222;6.480;2022-11-20T09:15:27;5.30;99.90
36498;DHT22;22513;51.222;6.480;2022-11-20T09:17:58;5.20;99.90
36498;DHT22;22513;51.222;6.480;2022-11-20T09:20:25;5.20;99.90
36498;DHT22;22513;51.222;6.480;2022-11-20T09:22:50;5.20;99.90
36498;DHT22;22513;51.222;6.480;2022-11-20T09:25:17;5.20;99.90
36498;DHT22;22513;51.222;6.480;2022-11-20T09:27:42;5.20;99.90
36498;DHT22;22513;51.222;6.480;2022-11-20T09:30:09;5.20;99.90
36498;DHT22;22513;51.222;6.480;2022-11-20T09:32:35;5.10;99.90
36498;DHT22;22513;51.222;6.480;2022-11-20T09:35:04;5.10;99.90
36498;DHT22;22513;51.222;6.480;2022-11-20T09:37:30;5.10;99.90
36498;DHT22;22513;51.222;6.480;2022-11-20T09:39:55;5.20;99.90
36498;DHT22;22513;51.222;6.480;2022-11-20T09:42:44;5.30;99.90
36498;DHT22;22513;51.222;6.480;2022-11-20T09:56:48;5.90;99.90
36498;DHT22;22513;51.222;6.480;2022-11-20T10:04:52;5.90;99.90
36498;DHT22;22513;51.222;6.480;2022-11-20T10:07:39;5.90;99.90
36498;DHT22;22513;51.222;6.480;2022-11-20T10:10:19;5.90;99.90
36498;DHT22;22513;51.222;6.480;2022-11-20T10:13:38;5.90;99.90
36498;DHT22;22513;51.222;6.480;2022-11-20T10:16:24;5.90;99.90
36498;DHT22;22513;51.222;6.480;2022-11-20T10:24:55;5.80;99.90
36498;DHT22;22513;51.222;6.480;2022-11-20T10:30:15;6.10;99.90
36498;DHT22;22513;51.222;6.480;2022-11-20T10:32:43;6.10;99.90
36498;DHT22;22513;51.222;6.480;2022-11-20T10:37:42;6.20;99.90
36498;DHT22;22513;51.222;6.480;2022-11-20T10:40:43;6.20;99.90
36498;DHT22;22513;51.222;6.480;2022-11-20T10:43:14;6.10;99.90
36498;DHT22;22513;51.222;6.480;2022-11-20T10:48:16;5.90;99.90
36498;DHT22;22513;51.222;6.480;2022-11-20T10:54:02;6.00;99.90
36498;DHT22;22513;51.222;6.480;2022-11-20T10:56:40;6.10;99.90
36498;DHT22;22513;51.222;6.480;2022-11-20T11:01:47;6.20;99.90
36498;DHT22;22513;51.222;6.480;2022-11-20T11:04:32;6.20;99.90
36498;DHT22;22513;51.222;6.480;2022-11-20T11:07:12;6.10;99.90
36498;DHT22;22513;51.222;6.480;2022-11-20T11:09:43;6.10;99.90
36498;DHT22;22513;51.222;6.480;2022-11-20T11:12:09;6.10;99.90
36498;DHT22;22513;51.222;6.480;2022-11-20T11:14:49;6.10;99.90
36498;DHT22;22513;51.222;6.480;2022-11-20T11:17:32;6.10;99.90
36498;DHT22;22513;51.222;6.480;2022-11-20T11:22:44;6.10;99.90
36498;DHT22;22513;51.222;6.480;2022-11-20T11:27:47;6.20;99.90
36498;DHT22;22513;51.222;6.480;2022-11-20T11:30:18;6.20;99.90
36498;DHT22;22513;51.222;6.480;2022-11-20T11:32:44;6.30;99.90
36498;DHT22;22513;51.222;6.480;2022-11-20T11:35:46;6.30;99.90
36498;DHT22;22513;51.222;6.480;2022-11-20T11:38:21;6.30;99.90
36498;DHT22;22513;51.222;6.480;2022-11-20T11:40:47;6.30;99.90
36498;DHT22;22513;51.222;6.480;2022-11-20T11:43:22;6.40;99.90
36498;DHT22;22513;51.222;6.480;2022-11-20T11:46:29;6.50;99.90
36498;DHT22;22513;51.222;6.480;2022-11-20T11:51:46;6.50;99.90
36498;DHT22;22513;51.222;6.480;2022-11-20T11:54:58;6.40;99.90
36498;DHT22;22513;51.222;6.480;2022-11-20T11:57:44;6.40;99.90
36498;DHT22;22513;51.222;6.480;2022-11-20T12:00:13;6.50;99.90
36498;DHT22;22513;51.222;6.480;2022-11-20T12:05:24;6.50;99.90
36498;DHT22;22513;51.222;6.480;2022-11-20T12:15:53;6.70;99.90
36498;DHT22;22513;51.222;6.480;2022-11-20T12:18:20;6.70;99.90
36498;DHT22;22513;51.222;6.480;2022-11-20T12:37:32;6.40;99.90
36498;DHT22;22513;51.222;6.480;2022-11-20T12:46:02;6.40;99.90
36498;DHT22;22513;51.222;6.480;2022-11-20T12:57:07;6.60;99.90
36498;DHT22;22513;51.222;6.480;2022-11-20T13:02:29;6.60;99.90
36498;DHT22;22513;51.222;6.480;2022-11-20T13:07:40;6.50;99.90
36498;DHT22;22513;51.222;6.480;2022-11-20T13:10:27;6.50;99.90
36498;DHT22;22513;51.222;6.480;2022-11-20T13:13:00;6.50;99.90
36498;DHT22;22513;51.222;6.480;2022-11-20T13:18:13;6.60;99.90
36498;DHT22;22513;51.222;6.480;2022-11-20T13:20:44;6.60;99.90
36498;DHT22;22513;51.222;6.480;2022-11-20T13:23:10;6.60;99.90
36498;DHT22;22513;51.222;6.480;2022-11-20T13:25:39;6.60;99.90
36498;DHT22;22513;51.222;6.480;2022-11-20T13:28:26;6.60;99.90
36498;DHT22;22513;51.222;6.480;2022-11-20T13:30:54;6.50;99.90
36498;DHT22;22513;51.222;6.480;2022-11-20T13:36:03;6.50;99.90
36498;DHT22;22513;51.222;6.480;2022-11-20T13:38:46;6.50;99.90
36498;DHT22;22513;51.222;6.480;2022-11-20T13:41:28;6.50;99.90
36498;DHT22;22513;51.222;6.480;2022-11-20T13:44:45;6.50;99.90
36498;DHT22;22513;51.222;6.480;2022-11-20T13:46:45;6.60;99.90
36498;DHT22;22513;51.222;6.480;2022-11-20T13:49:25;6.60;99.90
36498;DHT22;22513;51.222;6.480;2022-11-20T13:51:58;6.50;99.90
36498;DHT22;22513;51.222;6.480;2022-11-20T13:54:55;6.50;99.90
36498;DHT22;22513;51.222;6.480;2022-11-20T14:02:36;6.50;99.90
36498;DHT22;22513;51.222;6.480;2022-11-20T14:05:02;6.50;99.90
36498;DHT22;22513;51.222;6.480;2022-11-20T14:07:37;6.40;99.90
36498;DHT22;22513;51.222;6.480;2022-11-20T14:10:05;6.40;99.90
36498;DHT22;22513;51.222;6.480;2022-11-20T14:12:33;6.40;99.90
36498;DHT22;22513;51.222;6.480;2022-11-20T14:14:59;6.40;99.90
36498;DHT22;22513;51.222;6.480;2022-11-20T14:17:32;6.50;99.90
36498;DHT22;22513;51.222;6.480;2022-11-20T14:20:04;6.50;99.90
36498;DHT22;22513;51.222;6.480;2022-11-20T14:22:30;6.40;99.90
36498;DHT22;22513;51.222;6.480;2022-11-20T14:27:44;6.30;99.90
36498;DHT22;22513;51.222;6.480;2022-11-20T14:30:15;6.30;99.90
36498;DHT22;22513;51.222;6.480;2022-11-20T14:32:42;6.30;99.90
36498;DHT22;22513;51.222;6.480;2022-11-20T14:35:10;6.20;99.90
36498;DHT22;22513;51.222;6.480;2022-11-20T14:37:39;6.10;99.90
36498;DHT22;22513;51.222;6.480;2022-11-20T14:42:54;6.00;99.90
36498;DHT22;22513;51.222;6.480;2022-11-20T14:45:21;6.00;99.90
36498;DHT22;22513;51.222;6.480;2022-11-20T14:47:48;6.10;99.90
36498;DHT22;22513;51.222;6.480;2022-11-20T14:50:19;6.00;99.90
36498;DHT22;22513;51.222;6.480;2022-11-20T14:52:56;6.10;99.90
36498;DHT22;22513;51.222;6.480;2022-11-20T14:55:37;6.10;99.90
36498;DHT22;22513;51.222;6.480;2022-11-20T14:58:05;6.00;99.90
36498;DHT22;22513;51.222;6.480;2022-11-20T15:00:32;6.00;99.90
36498;DHT22;22513;51.222;6.480;2022-11-20T15:02:58;6.00;99.90
36498;DHT22;22513;51.222;6.480;2022-11-20T15:05:43;6.00;99.90
36498;DHT22;22513;51.222;6.480;2022-11-20T15:08:10;5.90;99.90
36498;DHT22;22513;51.222;6.480;2022-11-20T15:10:36;5.90;99.90
36498;DHT22;22513;51.222;6.480;2022-11-20T15:13:06;5.90;99.90
36498;DHT22;22513;51.222;6.480;2022-11-20T15:15:50;5.90;99.90
36498;DHT22;22513;51.222;6.480;2022-11-20T15:18:18;5.90;99.90
36498;DHT22;22513;51.222;6.480;2022-11-20T15:20:45;5.80;99.90
36498;DHT22;22513;51.222;6.480;2022-11-20T15:23:18;5.80;99.90
36498;DHT22;22513;51.222;6.480;2022-11-20T15:25:45;5.70;99.90
36498;DHT22;22513;51.222;6.480;2022-11-20T15:30:40;5.70;99.90
36498;DHT22;22513;51.222;6.480;2022-11-20T15:33:08;5.60;99.90
36498;DHT22;22513;51.222;6.480;2022-11-20T15:35:33;5.60;99.90
36498;DHT22;22513;51.222;6.480;2022-11-20T15:37:59;5.60;99.90
36498;DHT22;22513;51.222;6.480;2022-11-20T15:40:24;5.50;99.90
36498;DHT22;22513;51.222;6.480;2022-11-20T15:42:50;5.50;99.90
36498;DHT22;22513;51.222;6.480;2022-11-20T15:45:31;5.50;99.90
36498;DHT22;22513;51.222;6.480;2022-11-20T15:47:59;5.40;99.90
36498;DHT22;22513;51.222;6.480;2022-11-20T15:50:29;5.50;99.90
36498;DHT22;22513;51.222;6.480;2022-11-20T15:52:58;5.40;99.90
36498;DHT22;22513;51.222;6.480;2022-11-20T15:55:24;5.50;99.90
36498;DHT22;22513;51.222;6.480;2022-11-20T15:57:49;5.50;99.90
36498;DHT22;22513;51.222;6.480;2022-11-20T16:00:15;5.40;99.90
36498;DHT22;22513;51.222;6.480;2022-11-20T16:02:41;5.40;99.90
36498;DHT22;22513;51.222;6.480;2022-11-20T16:05:11;5.40;99.90
36498;DHT22;22513;51.222;6.480;2022-11-20T16:07:37;5.40;99.90
36498;DHT22;22513;51.222;6.480;2022-11-20T16:10:03;5.40;99.90
36498;DHT22;22513;51.222;6.480;2022-11-20T16:12:29;5.40;99.90
36498;DHT22;22513;51.222;6.480;2022-11-20T16:15:13;5.40;99.90
36498;DHT22;22513;51.222;6.480;2022-11-20T16:17:57;5.40;99.90
36498;DHT22;22513;51.222;6.480;2022-11-20T16:20:23;5.50;99.90
36498;DHT22;22513;51.222;6.480;2022-11-20T16:22:49;5.50;99.90
36498;DHT22;22513;51.222;6.480;2022-11-20T16:25:14;5.50;99.90
36498;DHT22;22513;51.222;6.480;2022-11-20T16:27:40;5.50;99.90
36498;DHT22;22513;51.222;6.480;2022-11-20T16:30:06;5.50;99.90
36498;DHT22;22513;51.222;6.480;2022-11-20T16:32:32;5.50;99.90
36498;DHT22;22513;51.222;6.480;2022-11-20T16:34:57;5.50;99.90
36498;DHT22;22513;51.222;6.480;2022-11-20T16:37:23;5.50;99.90
36498;DHT22;22513;51.222;6.480;2022-11-20T16:39:48;5.50;99.90
36498;DHT22;22513;51.222;6.480;2022-11-20T16:42:14;5.50;99.90
36498;DHT22;22513;51.222;6.480;2022-11-20T16:44:40;5.50;99.90
36498;DHT22;22513;51.222;6.480;2022-11-20T16:47:05;5.60;99.90
36498;DHT22;22513;51.222;6.480;2022-11-20T16:49:31;5.50;99.90
36498;DHT22;22513;51.222;6.480;2022-11-20T16:51:57;5.50;99.90
36498;DHT22;22513;51.222;6.480;2022-11-20T16:54:23;5.50;99.90
36498;DHT22;22513;51.222;6.480;2022-11-20T16:56:49;5.60;99.90
36498;DHT22;22513;51.222;6.480;2022-11-20T16:59:16;5.60;99.90
36498;DHT22;22513;51.222;6.480;2022-11-20T17:01:42;5.60;99.90
36498;DHT22;22513;51.222;6.480;2022-11-20T17:04:08;5.60;99.90
36498;DHT22;22513;51.222;6.480;2022-11-20T17:06:36;5.60;99.90
36498;DHT22;22513;51.222;6.480;2022-11-20T17:09:02;5.60;99.90
36498;DHT22;22513;51.222;6.480;2022-11-20T17:11:28;5.60;99.90
36498;DHT22;22513;51.222;6.480;2022-11-20T17:13:56;5.60;99.90
36498;DHT22;22513;51.222;6.480;2022-11-20T17:16:23;5.70;99.90
36498;DHT22;22513;51.222;6.480;2022-11-20T17:18:49;5.70;99.90
36498;DHT22;22513;51.222;6.480;2022-11-20T17:21:15;5.70;99.90
36498;DHT22;22513;51.222;6.480;2022-11-20T17:23:42;5.70;99.90
36498;DHT22;22513;51.222;6.480;2022-11-20T17:26:10;5.70;99.90
36498;DHT22;22513;51.222;6.480;2022-11-20T17:28:38;5.80;99.90
36498;DHT22;22513;51.222;6.480;2022-11-20T17:31:09;5.80;99.90
36498;DHT22;22513;51.222;6.480;2022-11-20T17:33:37;5.80;99.90
36498;DHT22;22513;51.222;6.480;2022-11-20T17:36:04;5.80;99.90
36498;DHT22;22513;51.222;6.480;2022-11-20T17:38:29;5.90;99.90
36498;DHT22;22513;51.222;6.480;2022-11-20T17:43:37;6.00;99.90
36498;DHT22;22513;51.222;6.480;2022-11-20T17:46:17;6.00;99.90
36498;DHT22;22513;51.222;6.480;2022-11-20T17:48:43;6.00;99.90
36498;DHT22;22513;51.222;6.480;2022-11-20T17:51:17;6.10;99.90
36498;DHT22;22513;51.222;6.480;2022-11-20T17:53:48;6.20;99.90